Time;durP1;ratioP1;P1;durP2;ratioP2;P2;SDS_P1;SDS_P2;PMS_P1;PMS_P2;Temp;Humidity;BMP_temperature;BMP_pressure;BME280_temperature;BME280_humidity;BME280_pressure;Samples;Min_cycle;Max_cycle;Signal;HPM_P1;HPM_P2
2022/09/14 00:02:08;;;;;;;11.80;6.60;;;10.70;97.90;;;;;;4958223;29;20020;-86
2022/09/14 00:04:33;;;;;;;7.28;6.00;;;10.70;98.00;;;;;;4961291;29;20481;-86
2022/09/14 00:06:59;;;;;;;8.35;5.85;;;10.70;97.90;;;;;;4955492;29;20024;-85
2022/09/14 00:09:25;;;;;;;6.55;5.90;;;10.80;98.00;;;;;;4955727;28;20050;-87
2022/09/14 00:11:51;;;;;;;7.85;6.30;;;10.80;98.00;;;;;;4953991;28;20130;-84
2022/09/14 00:14:18;;;;;;;6.20;5.57;;;10.80;98.00;;;;;;4953780;29;20074;-88
2022/09/14 00:16:44;;;;;;;10.27;5.73;;;10.90;97.90;;;;;;4959780;28;20028;-85
2022/09/14 00:19:21;;;;;;;8.13;6.53;;;10.90;97.80;;;;;;4986358;28;20027;-86
2022/09/14 00:21:53;;;;;;;7.85;7.00;;;10.90;97.90;;;;;;4966043;29;20035;-86
2022/09/14 00:24:20;;;;;;;6.22;5.43;;;10.90;97.90;;;;;;4961614;28;20039;-86
2022/09/14 00:26:47;;;;;;;7.22;6.53;;;10.90;97.90;;;;;;4955123;28;20106;-86
2022/09/14 00:29:13;;;;;;;6.88;6.18;;;10.90;97.80;;;;;;4949363;29;20023;-85
2022/09/14 00:31:39;;;;;;;7.00;6.30;;;10.90;97.80;;;;;;4955601;28;20560;-84
2022/09/14 00:34:07;;;;;;;6.68;5.97;;;10.90;97.90;;;;;;4956511;28;20034;-86
2022/09/14 00:36:40;;;;;;;7.50;5.97;;;10.90;97.90;;;;;;4953857;29;20023;-87
2022/09/14 00:39:07;;;;;;;8.35;5.85;;;10.90;98.30;;;;;;4957275;29;20031;-87
2022/09/14 00:41:35;;;;;;;6.25;5.65;;;10.90;97.90;;;;;;4955805;28;20541;-86
2022/09/14 00:44:27;;;;;;;5.85;5.25;;;10.80;98.00;;;;;;4956068;29;20039;-86
2022/09/14 00:46:56;;;;;;;6.43;5.82;;;10.80;98.20;;;;;;4944117;29;20019;-86
2022/09/14 00:49:30;;;;;;;7.90;6.13;;;10.70;98.20;;;;;;4952461;28;20058;-85
2022/09/14 00:52:23;;;;;;;7.68;6.15;;;10.80;98.30;;;;;;4956916;29;20020;-84
2022/09/14 00:54:55;;;;;;;6.30;5.72;;;10.70;98.40;;;;;;4956652;28;20480;-85
2022/09/14 00:57:22;;;;;;;6.93;6.22;;;10.80;98.50;;;;;;4957762;28;20011;-86
2022/09/14 00:59:50;;;;;;;6.72;6.13;;;10.80;98.50;;;;;;4957238;28;20030;-86
2022/09/14 01:02:18;;;;;;;6.18;5.68;;;10.80;98.50;;;;;;4942308;29;20139;-86
2022/09/14 01:04:45;;;;;;;6.72;5.80;;;10.80;98.40;;;;;;4956798;29;20039;-87
2022/09/14 01:07:21;;;;;;;5.75;5.20;;;10.80;98.50;;;;;;4957089;28;20047;-85
2022/09/14 01:10:05;;;;;;;6.03;5.43;;;10.90;98.40;;;;;;4956346;28;20117;-86
2022/09/14 01:13:27;;;;;;;6.50;5.90;;;10.90;98.40;;;;;;4961877;29;20030;-84
2022/09/14 01:16:08;;;;;;;7.72;5.97;;;10.90;98.40;;;;;;4958890;29;20039;-86
2022/09/14 01:18:45;;;;;;;6.32;5.75;;;11.00;98.40;;;;;;4959387;29;20393;-86
2022/09/14 01:21:21;;;;;;;6.70;6.07;;;11.00;98.40;;;;;;4959670;29;20051;-86
2022/09/14 01:24:18;;;;;;;8.52;6.22;;;11.00;98.20;;;;;;4975487;28;20031;-84
2022/09/14 01:26:52;;;;;;;6.93;6.22;;;11.00;98.10;;;;;;4964444;29;20039;-86
2022/09/14 01:29:24;;;;;;;6.22;5.63;;;11.10;98.10;;;;;;4956343;29;20515;-84
2022/09/14 01:31:56;;;;;;;7.75;6.63;;;11.10;98.20;;;;;;4956278;29;20031;-84
2022/09/14 01:34:35;;;;;;;5.95;5.38;;;11.20;98.10;;;;;;4956863;29;20050;-85
2022/09/14 01:37:26;;;;;;;6.43;5.82;;;11.30;98.10;;;;;;4956781;29;20485;-83
2022/09/14 01:40:08;;;;;;;6.82;6.07;;;11.30;98.00;;;;;;4948539;29;20161;-83
2022/09/14 01:42:37;;;;;;;10.38;6.28;;;11.30;97.70;;;;;;4958941;29;20046;-83
2022/09/14 01:45:09;;;;;;;6.00;5.40;;;11.30;97.70;;;;;;4956402;28;20031;-85
2022/09/14 01:47:52;;;;;;;8.80;6.55;;;11.30;97.70;;;;;;4955244;28;20051;-83
2022/09/14 01:50:34;;;;;;;6.25;5.65;;;11.30;97.60;;;;;;4955632;29;20015;-84
2022/09/14 01:53:08;;;;;;;7.30;6.47;;;11.30;97.70;;;;;;4955246;28;20418;-85
2022/09/14 01:55:56;;;;;;;8.05;7.32;;;11.30;97.60;;;;;;4953909;28;20556;-83
2022/09/14 01:58:34;;;;;;;6.07;5.45;;;11.30;97.60;;;;;;4953660;29;20433;-84
2022/09/14 02:01:03;;;;;;;7.20;6.50;;;11.30;97.70;;;;;;4965592;28;20110;-84
2022/09/14 02:03:35;;;;;;;6.82;6.13;;;11.30;97.80;;;;;;4959181;29;20031;-82
2022/09/14 02:06:13;;;;;;;6.40;5.80;;;11.30;97.80;;;;;;4957742;28;20032;-84
2022/09/14 02:08:40;;;;;;;6.68;5.97;;;11.30;97.90;;;;;;4962293;29;20027;-83
2022/09/14 02:11:05;;;;;;;5.60;5.10;;;11.30;97.80;;;;;;4964238;29;20023;-84
2022/09/14 02:13:32;;;;;;;6.95;5.70;;;11.30;97.80;;;;;;4985532;28;20006;-84
2022/09/14 02:15:58;;;;;;;6.82;6.13;;;11.20;97.90;;;;;;4975780;28;20019;-84
2022/09/14 02:18:24;;;;;;;5.88;5.38;;;11.30;98.00;;;;;;4970722;28;20783;-84
2022/09/14 02:20:59;;;;;;;7.88;5.60;;;11.30;98.00;;;;;;4962049;29;20035;-84
2022/09/14 02:23:25;;;;;;;6.10;5.45;;;11.40;98.10;;;;;;4956792;29;20432;-83
2022/09/14 02:25:51;;;;;;;5.95;5.35;;;11.40;98.00;;;;;;4955427;29;20110;-83
2022/09/14 02:28:17;;;;;;;6.90;5.45;;;11.30;98.00;;;;;;4949830;29;20045;-84
2022/09/14 02:31:08;;;;;;;6.63;5.90;;;11.30;98.10;;;;;;4954816;29;20478;-84
2022/09/14 02:33:51;;;;;;;6.55;5.90;;;11.30;98.10;;;;;;4969968;28;20034;-84
2022/09/14 02:36:43;;;;;;;7.93;5.68;;;11.30;98.50;;;;;;4954548;28;20106;-85
2022/09/14 02:39:14;;;;;;;10.60;5.78;;;11.30;98.30;;;;;;4951814;28;20039;-83
2022/09/14 02:42:10;;;;;;;7.57;6.45;;;11.30;98.30;;;;;;4954909;29;20111;-84
2022/09/14 02:44:58;;;;;;;7.47;6.70;;;11.20;98.50;;;;;;4954106;28;20031;-84
2022/09/14 02:47:32;;;;;;;;;;;11.20;98.60;;;;;;4953457;29;20047;-83
2022/09/14 02:50:11;;;;;;;9.07;6.72;;;11.10;98.40;;;;;;4944217;29;20345;-84
2022/09/14 02:52:55;;;;;;;8.85;6.28;;;11.10;98.80;;;;;;4954929;28;20504;-85
2022/09/14 02:55:25;;;;;;;7.38;6.57;;;11.10;99.00;;;;;;4947721;29;20481;-83
2022/09/14 02:58:11;;;;;;;7.32;6.63;;;11.10;99.00;;;;;;4956680;28;20487;-85
2022/09/14 03:00:41;;;;;;;6.50;5.90;;;11.20;99.20;;;;;;4973947;28;20153;-84
2022/09/14 03:03:09;;;;;;;7.82;6.88;;;11.10;99.00;;;;;;4955843;29;20019;-84
2022/09/14 03:05:35;;;;;;;7.57;6.85;;;11.10;99.20;;;;;;4956648;28;20050;-83
2022/09/14 03:08:01;;;;;;;8.82;7.28;;;11.20;99.20;;;;;;4957869;29;20023;-84
2022/09/14 03:10:27;;;;;;;12.40;7.65;;;11.10;99.30;;;;;;4966552;29;20030;-84
2022/09/14 03:12:53;;;;;;;8.75;7.68;;;11.10;99.30;;;;;;4973578;29;20051;-83
2022/09/14 03:15:20;;;;;;;10.30;8.10;;;11.10;99.40;;;;;;4960873;28;20094;-84
2022/09/14 03:17:47;;;;;;;11.77;8.40;;;11.20;99.50;;;;;;4960807;29;20473;-83
2022/09/14 03:20:18;;;;;;;12.27;9.63;;;11.20;99.50;;;;;;4961900;28;20042;-83
2022/09/14 03:22:45;;;;;;;10.23;9.10;;;11.20;99.50;;;;;;4962751;28;20031;-85
2022/09/14 03:25:11;;;;;;;12.65;11.07;;;11.20;99.50;;;;;;4961091;29;20031;-86
2022/09/14 03:27:38;;;;;;;11.30;9.65;;;11.20;99.50;;;;;;4949486;28;20050;-86
2022/09/14 03:30:05;;;;;;;11.27;10.20;;;11.20;99.50;;;;;;4955472;29;20023;-86
2022/09/14 03:32:32;;;;;;;11.48;10.30;;;11.20;99.70;;;;;;4958874;28;20078;-86
2022/09/14 03:34:58;;;;;;;14.37;11.93;;;11.20;99.80;;;;;;4960000;28;20024;-85
2022/09/14 03:37:25;;;;;;;13.50;10.80;;;11.20;99.80;;;;;;4962931;28;20066;-85
2022/09/14 03:39:51;;;;;;;14.60;11.10;;;11.20;99.80;;;;;;4964782;29;20029;-86
2022/09/14 03:42:17;;;;;;;12.93;11.63;;;11.20;99.90;;;;;;4956882;28;20110;-87
2022/09/14 03:44:43;;;;;;;14.57;12.95;;;11.20;99.90;;;;;;4958983;29;20592;-86
2022/09/14 03:47:09;;;;;;;14.55;13.02;;;11.20;99.90;;;;;;4957188;28;20044;-85
2022/09/14 03:49:35;;;;;;;14.95;13.40;;;11.30;99.90;;;;;;4954473;28;20174;-86
2022/09/14 03:52:01;;;;;;;16.15;13.98;;;11.30;99.90;;;;;;4958656;29;20068;-86
2022/09/14 03:54:27;;;;;;;13.90;12.50;;;11.30;99.90;;;;;;4959097;28;20027;-86
2022/09/14 03:56:53;;;;;;;16.88;14.20;;;11.40;99.90;;;;;;4962234;28;20023;-84
2022/09/14 03:59:20;;;;;;;16.42;14.93;;;11.30;99.90;;;;;;4960083;28;20449;-85
2022/09/14 04:01:46;;;;;;;17.60;15.77;;;11.30;99.90;;;;;;4959152;28;20027;-87
2022/09/14 04:04:12;;;;;;;18.70;14.73;;;11.30;99.90;;;;;;4961899;28;20050;-86
2022/09/14 04:06:38;;;;;;;17.48;15.73;;;11.40;99.90;;;;;;4964696;28;20074;-86
2022/09/14 04:09:04;;;;;;;16.35;14.65;;;11.40;99.90;;;;;;4962858;29;20026;-85
2022/09/14 04:11:30;;;;;;;16.48;14.80;;;11.40;99.90;;;;;;4959272;28;20488;-87
2022/09/14 04:14:03;;;;;;;17.23;15.43;;;11.40;99.90;;;;;;4956643;28;20102;-86
2022/09/14 04:16:29;;;;;;;19.00;15.50;;;11.40;99.90;;;;;;4952193;29;20078;-86
2022/09/14 04:18:55;;;;;;;15.10;13.45;;;11.40;99.90;;;;;;4958687;28;20045;-85
2022/09/14 04:21:23;;;;;;;15.95;14.25;;;11.50;99.90;;;;;;4951786;29;20063;-84
2022/09/14 04:23:53;;;;;;;;;;;11.50;99.90;;;;;;4958534;28;20432;-85
2022/09/14 04:26:21;;;;;;;16.33;14.05;;;11.50;99.90;;;;;;4953483;29;20451;-86
2022/09/14 04:28:47;;;;;;;17.42;14.73;;;11.50;99.90;;;;;;4955863;29;20026;-88
2022/09/14 04:31:13;;;;;;;17.17;15.50;;;11.50;99.90;;;;;;4958221;28;20412;-86
2022/09/14 04:33:40;;;;;;;16.73;14.00;;;11.50;99.90;;;;;;4969838;28;20088;-87
2022/09/14 04:36:10;;;;;;;;;;;11.60;99.90;;;;;;4969073;28;20027;-87
2022/09/14 04:38:38;;;;;;;15.32;13.70;;;11.60;99.90;;;;;;4957446;28;19907;-86
2022/09/14 04:41:05;;;;;;;;;;;11.70;99.90;;;;;;4959601;28;20763;-86
2022/09/14 04:43:31;;;;;;;17.90;13.90;;;11.70;99.90;;;;;;4957810;29;20329;-87
2022/09/14 04:46:03;;;;;;;15.73;14.07;;;11.80;99.90;;;;;;4956473;28;20050;-86
2022/09/14 04:48:32;;;;;;;17.20;15.18;;;12.00;99.90;;;;;;4958713;29;20401;-85
2022/09/14 04:51:10;;;;;;;16.08;14.38;;;12.00;99.90;;;;;;4958417;28;20057;-87
2022/09/14 04:53:37;;;;;;;16.75;14.40;;;12.10;99.80;;;;;;4965166;28;20031;-87
2022/09/14 04:56:06;;;;;;;13.53;12.23;;;12.20;99.50;;;;;;4959513;28;20019;-87
2022/09/14 04:58:33;;;;;;;14.05;12.40;;;12.10;99.10;;;;;;4963253;29;20031;-88
2022/09/14 05:01:03;;;;;;;12.57;11.38;;;12.10;98.90;;;;;;4968663;28;20074;-88
2022/09/14 05:03:29;;;;;;;13.68;12.18;;;12.10;98.80;;;;;;4964735;28;20028;-88
2022/09/14 05:06:00;;;;;;;15.15;12.05;;;12.10;98.80;;;;;;4960712;28;20049;-87
2022/09/14 05:08:25;;;;;;;13.73;12.38;;;12.20;98.80;;;;;;4960007;28;20023;-88
2022/09/14 05:10:54;;;;;;;14.25;12.43;;;12.30;98.70;;;;;;4959794;29;20023;-86
2022/09/14 05:13:20;;;;;;;15.50;12.27;;;12.40;98.30;;;;;;4958394;28;20023;-85
2022/09/14 05:15:46;;;;;;;19.65;13.73;;;12.50;98.00;;;;;;4959185;28;20034;-85
2022/09/14 05:18:12;;;;;;;15.30;12.15;;;12.50;97.80;;;;;;4964859;29;20030;-84
2022/09/14 05:20:38;;;;;;;15.43;12.63;;;12.50;97.60;;;;;;4967955;28;20098;-85
2022/09/14 05:23:03;;;;;;;14.88;12.55;;;12.60;97.50;;;;;;4958476;28;20023;-85
2022/09/14 05:25:29;;;;;;;15.02;13.43;;;12.50;97.40;;;;;;4960023;28;20106;-88
2022/09/14 05:27:55;;;;;;;14.68;13.27;;;12.60;97.40;;;;;;4965787;28;20074;-89
2022/09/14 05:30:21;;;;;;;19.60;13.52;;;12.60;97.40;;;;;;4973644;28;20105;-85
2022/09/14 05:32:50;;;;;;;15.85;14.23;;;12.60;97.40;;;;;;4974762;28;20098;-89
2022/09/14 05:35:16;;;;;;;17.58;14.23;;;12.60;97.30;;;;;;4971833;28;20039;-86
2022/09/14 05:37:42;;;;;;;15.25;13.65;;;12.70;97.30;;;;;;4969326;28;20026;-89
2022/09/14 05:40:08;;;;;;;16.05;13.90;;;12.70;97.30;;;;;;4968958;28;20473;-87
2022/09/14 05:42:34;;;;;;;15.45;13.85;;;12.70;97.10;;;;;;4967702;29;20046;-87
2022/09/14 05:45:00;;;;;;;15.82;13.93;;;12.70;97.10;;;;;;4959224;29;20082;-88
2022/09/14 05:47:30;;;;;;;16.77;15.05;;;12.70;97.10;;;;;;4956228;29;20051;-88
2022/09/14 05:49:56;;;;;;;17.10;14.60;;;12.70;97.00;;;;;;4955785;28;20027;-86
2022/09/14 05:52:23;;;;;;;16.88;15.05;;;12.80;97.10;;;;;;4955403;28;20544;-84
2022/09/14 05:54:49;;;;;;;16.20;14.52;;;12.80;97.00;;;;;;4957740;29;20027;-86
2022/09/14 05:57:15;;;;;;;17.88;14.93;;;12.70;96.80;;;;;;4959195;28;20015;-85
2022/09/14 05:59:41;;;;;;;18.45;15.90;;;12.70;97.00;;;;;;4959352;28;20049;-85
2022/09/14 06:02:08;;;;;;;14.70;13.20;;;12.80;97.10;;;;;;4963010;29;20034;-83
2022/09/14 06:04:34;;;;;;;15.32;13.77;;;12.70;96.90;;;;;;4961401;29;20444;-83
2022/09/14 06:07:00;;;;;;;15.43;12.60;;;12.70;96.90;;;;;;4956265;28;20110;-85
2022/09/14 06:09:26;;;;;;;15.80;12.52;;;12.80;96.80;;;;;;4961789;28;20027;-86
2022/09/14 06:11:52;;;;;;;17.60;13.18;;;12.80;96.70;;;;;;4960043;28;20043;-86
2022/09/14 06:14:20;;;;;;;18.02;13.27;;;12.80;96.70;;;;;;4958319;28;20031;-90
2022/09/14 06:16:46;;;;;;;14.27;12.45;;;12.80;96.70;;;;;;4960821;28;20019;-89
2022/09/14 06:19:14;;;;;;;13.32;11.18;;;12.90;96.60;;;;;;4961837;28;20118;-89
2022/09/14 06:21:41;;;;;;;16.13;12.90;;;12.90;96.40;;;;;;4965816;28;20087;-88
2022/09/14 06:24:08;;;;;;;13.13;11.85;;;12.90;96.40;;;;;;4960971;28;20396;-89
2022/09/14 06:26:34;;;;;;;13.25;11.88;;;12.90;96.40;;;;;;4963102;28;20097;-91
2022/09/14 06:29:00;;;;;;;14.68;11.20;;;13.00;96.40;;;;;;4959167;28;20027;-89
2022/09/14 06:31:26;;;;;;;15.13;13.05;;;13.00;96.20;;;;;;4962652;28;20046;-90
2022/09/14 06:33:52;;;;;;;12.88;11.60;;;13.00;96.10;;;;;;4960093;28;20111;-90
2022/09/14 06:36:23;;;;;;;14.93;11.88;;;13.10;96.10;;;;;;4961601;28;20103;-87
2022/09/14 06:38:50;;;;;;;10.32;9.27;;;13.10;96.00;;;;;;4965945;28;20047;-89
2022/09/14 06:41:19;;;;;;;11.43;9.57;;;13.10;95.90;;;;;;4965281;28;20074;-90
2022/09/14 06:43:45;;;;;;;11.07;9.95;;;13.10;95.60;;;;;;4970430;28;20059;-89
2022/09/14 06:46:17;;;;;;;10.18;8.40;;;13.10;95.50;;;;;;4978876;28;20041;-89
2022/09/14 06:48:48;;;;;;;9.05;8.18;;;13.20;95.50;;;;;;4968141;28;20090;-89
2022/09/14 06:51:24;;;;;;;10.10;9.05;;;13.30;95.50;;;;;;4964001;29;20082;-89
2022/09/14 06:53:51;;;;;;;10.95;9.85;;;13.40;95.20;;;;;;4981451;28;20031;-90
2022/09/14 06:56:17;;;;;;;9.85;8.90;;;13.60;94.90;;;;;;4968860;28;20027;-89
2022/09/14 06:58:44;;;;;;;10.13;9.13;;;13.60;94.60;;;;;;4964782;29;20062;-89
2022/09/14 07:01:13;;;;;;;10.25;8.45;;;13.70;94.30;;;;;;4966672;28;20035;-89
2022/09/14 07:03:42;;;;;;;11.00;9.93;;;13.80;94.20;;;;;;4956402;28;20023;-89
2022/09/14 07:06:11;;;;;;;10.30;9.30;;;13.80;94.00;;;;;;4957025;29;20019;-89
2022/09/14 07:08:38;;;;;;;10.00;9.00;;;13.90;93.80;;;;;;4962554;29;20370;-87
2022/09/14 07:11:07;;;;;;;10.57;9.40;;;13.90;93.70;;;;;;4961339;29;20031;-88
2022/09/14 07:13:34;;;;;;;11.68;10.48;;;13.90;93.50;;;;;;4964425;28;20062;-90
2022/09/14 07:16:02;;;;;;;10.55;8.65;;;13.90;93.50;;;;;;4966660;28;20035;-89
2022/09/14 07:18:31;;;;;;;10.75;9.73;;;13.90;93.50;;;;;;4964956;28;20035;-90
2022/09/14 07:21:13;;;;;;;13.45;10.20;;;13.80;93.50;;;;;;4968055;29;20035;-89
2022/09/14 07:23:42;;;;;;;12.43;10.07;;;13.80;93.60;;;;;;4976382;28;20066;-88
2022/09/14 07:26:25;;;;;;;16.80;12.63;;;13.70;93.70;;;;;;4979681;28;20095;-90
2022/09/14 07:28:57;;;;;;;14.50;13.07;;;13.60;94.00;;;;;;4979149;28;20023;-88
2022/09/14 07:31:30;;;;;;;21.38;14.75;;;13.50;94.10;;;;;;4967322;28;20035;-90
2022/09/14 07:34:00;;;;;;;18.67;15.52;;;13.40;94.50;;;;;;4973788;28;20051;-87
2022/09/14 07:36:27;;;;;;;19.15;16.85;;;13.40;94.70;;;;;;4962894;29;20023;-89
2022/09/14 07:38:55;;;;;;;19.02;16.83;;;13.30;95.00;;;;;;4973254;28;20114;-90
2022/09/14 07:41:24;;;;;;;20.33;16.92;;;13.30;95.20;;;;;;4969508;28;20054;-89
2022/09/14 07:43:51;;;;;;;26.65;21.50;;;13.20;95.50;;;;;;4976626;28;20034;-91
2022/09/14 07:46:19;;;;;;;20.80;17.38;;;13.10;95.90;;;;;;4964757;28;20023;-90
2022/09/14 07:48:45;;;;;;;20.30;17.88;;;13.10;96.30;;;;;;4967666;29;20051;-89
2022/09/14 07:51:11;;;;;;;20.30;17.40;;;13.00;96.50;;;;;;4965323;28;20090;-89
2022/09/14 07:53:43;;;;;;;20.35;17.17;;;13.10;96.80;;;;;;4965448;28;20066;-89
2022/09/14 07:56:12;;;;;;;20.35;17.77;;;13.00;97.00;;;;;;4953270;28;20112;-90
2022/09/14 07:58:38;;;;;;;20.73;17.05;;;13.00;97.30;;;;;;4968122;28;20070;-91
2022/09/14 08:01:10;;;;;;;21.73;17.02;;;13.00;97.40;;;;;;4970413;28;20024;-89
2022/09/14 08:03:41;;;;;;;21.65;17.55;;;13.00;97.60;;;;;;4967361;28;20031;-90
2022/09/14 08:06:12;;;;;;;22.48;16.65;;;13.00;97.70;;;;;;4975518;28;20058;-90
2022/09/14 08:08:40;;;;;;;17.55;15.45;;;12.90;98.10;;;;;;4969860;28;20070;-92
2022/09/14 08:11:14;;;;;;;18.65;16.70;;;12.90;98.30;;;;;;4970809;28;20027;-91
2022/09/14 08:13:43;;;;;;;21.58;17.83;;;13.00;98.30;;;;;;4972787;29;20027;-91
2022/09/14 08:16:10;;;;;;;22.23;17.02;;;13.20;98.50;;;;;;5007982;28;20038;-89
2022/09/14 08:18:39;;;;;;;21.02;15.80;;;13.30;98.30;;;;;;5011579;28;20134;-90
2022/09/14 08:21:14;;;;;;;17.42;14.88;;;13.40;98.10;;;;;;4993491;28;20034;-91
2022/09/14 08:23:46;;;;;;;15.90;13.38;;;13.50;98.10;;;;;;4989096;28;20041;-92
2022/09/14 08:26:13;;;;;;;16.55;13.95;;;13.70;97.80;;;;;;5003023;28;20116;-90
2022/09/14 08:28:40;;;;;;;17.65;14.40;;;13.80;97.50;;;;;;4988573;28;20062;-92
2022/09/14 08:31:10;;;;;;;17.25;14.40;;;14.10;97.50;;;;;;5002309;28;20036;-91
2022/09/14 08:33:40;;;;;;;15.23;13.57;;;14.30;96.70;;;;;;4988473;28;20089;-91
2022/09/14 08:36:07;;;;;;;15.73;13.65;;;14.40;96.30;;;;;;4998739;28;20074;-89
2022/09/14 08:38:37;;;;;;;15.20;13.63;;;14.60;96.00;;;;;;5008676;28;20031;-89
2022/09/14 08:41:17;;;;;;;20.27;16.02;;;14.60;95.60;;;;;;5003865;28;20077;-92
2022/09/14 08:43:43;;;;;;;20.00;14.93;;;14.70;95.00;;;;;;5001200;28;20026;-91
2022/09/14 08:46:21;;;;;;;16.88;13.00;;;14.70;94.90;;;;;;4998608;28;20093;-90
2022/09/14 08:48:48;;;;;;;19.00;15.45;;;14.80;95.00;;;;;;4975155;28;20047;-89
2022/09/14 08:51:16;;;;;;;14.85;13.25;;;14.90;94.90;;;;;;4976061;28;20035;-91
2022/09/14 08:53:44;;;;;;;18.83;13.48;;;15.00;94.60;;;;;;4977330;28;20037;-90
2022/09/14 08:56:38;;;;;;;15.07;11.85;;;15.00;94.10;;;;;;4971682;28;20039;-89
2022/09/14 08:59:26;;;;;;;15.57;11.60;;;15.00;93.90;;;;;;4952286;28;20122;-88
2022/09/14 09:02:20;;;;;;;16.85;11.82;;;14.90;93.70;;;;;;4964817;29;20019;-89
2022/09/14 09:04:55;;;;;;;12.77;10.75;;;14.70;93.60;;;;;;4966350;28;20031;-87
2022/09/14 09:07:59;;;;;;;12.93;10.65;;;14.60;93.90;;;;;;4965705;29;20032;-88
2022/09/14 09:10:26;;;;;;;11.20;9.90;;;14.40;93.90;;;;;;4964878;28;20042;-90
2022/09/14 09:12:58;;;;;;;13.20;11.20;;;14.30;94.30;;;;;;4986551;28;20038;-90
2022/09/14 09:15:54;;;;;;;12.13;10.35;;;14.20;94.50;;;;;;4990974;28;20078;-91
2022/09/14 09:19:08;;;;;;;11.70;10.20;;;14.20;94.70;;;;;;4992690;28;20138;-90
2022/09/14 09:21:47;;;;;;;16.10;12.18;;;14.20;94.70;;;;;;4985014;28;20046;-90
2022/09/14 09:24:24;;;;;;;13.32;11.85;;;14.20;94.90;;;;;;4981226;28;20043;-89
2022/09/14 09:26:54;;;;;;;12.73;11.00;;;14.20;94.80;;;;;;4988075;28;20046;-90
2022/09/14 09:29:20;;;;;;;13.57;11.50;;;14.30;94.70;;;;;;4975321;28;20031;-89
2022/09/14 09:31:56;;;;;;;13.77;10.32;;;14.20;94.50;;;;;;4964378;28;20028;-92
2022/09/14 09:34:26;;;;;;;14.52;11.77;;;14.20;94.50;;;;;;4983330;28;20066;-90
2022/09/14 09:36:54;;;;;;;13.85;11.88;;;14.30;94.60;;;;;;4982627;28;20101;-90
2022/09/14 09:39:24;;;;;;;13.15;9.93;;;14.50;94.70;;;;;;4967693;28;20042;-88
2022/09/14 09:42:06;;;;;;;11.90;10.70;;;14.90;94.20;;;;;;4988861;28;20027;-87
2022/09/14 09:44:56;;;;;;;13.93;10.23;;;15.10;93.40;;;;;;4969759;28;20043;-89
2022/09/14 09:47:34;;;;;;;11.82;9.13;;;15.20;92.80;;;;;;4967319;28;20501;-89
2022/09/14 09:50:25;;;;;;;13.38;9.93;;;15.10;92.70;;;;;;4965998;29;20023;-89
2022/09/14 09:53:00;;;;;;;16.83;11.77;;;15.00;92.80;;;;;;4982353;28;20019;-91
2022/09/14 09:55:38;;;;;;;11.90;9.35;;;14.90;93.00;;;;;;4968756;28;20058;-89
2022/09/14 09:58:42;;;;;;;12.77;9.32;;;14.70;92.90;;;;;;4963505;28;20035;-92
2022/09/14 10:01:31;;;;;;;9.93;8.93;;;14.50;93.10;;;;;;4964719;28;20039;-90
2022/09/14 10:04:08;;;;;;;13.02;9.90;;;14.40;93.50;;;;;;4958426;28;20039;-90
2022/09/14 10:06:44;;;;;;;11.10;9.95;;;14.20;93.80;;;;;;4974970;28;20041;-90
2022/09/14 10:09:20;;;;;;;11.63;10.13;;;14.10;94.10;;;;;;4982999;28;20035;-92
2022/09/14 10:11:47;;;;;;;11.15;9.95;;;13.90;94.50;;;;;;4966357;28;20042;-92
2022/09/14 10:14:32;;;;;;;13.23;9.98;;;13.80;94.90;;;;;;4967952;28;20027;-91
2022/09/14 10:17:20;;;;;;;11.48;10.25;;;13.70;95.40;;;;;;4984629;28;20027;-89
2022/09/14 10:19:54;;;;;;;18.13;12.40;;;13.50;95.80;;;;;;4984631;28;20133;-91
2022/09/14 10:22:31;;;;;;;14.13;11.63;;;13.40;96.50;;;;;;4971488;28;20031;-90
2022/09/14 10:25:02;;;;;;;16.63;12.70;;;13.30;96.90;;;;;;4985196;28;20062;-91
2022/09/14 10:27:55;;;;;;;16.55;13.27;;;13.10;97.40;;;;;;4964885;28;20062;-91
2022/09/14 10:30:44;;;;;;;14.40;12.52;;;13.10;97.80;;;;;;4964079;28;20037;-90
2022/09/14 10:33:15;;;;;;;18.45;14.20;;;13.10;98.00;;;;;;4961281;28;20027;-89
2022/09/14 10:35:55;;;;;;;15.95;13.18;;;13.20;98.30;;;;;;4959354;29;20513;-90
2022/09/14 10:38:36;;;;;;;16.17;14.48;;;13.20;98.50;;;;;;4965199;29;20118;-89
2022/09/14 10:41:30;;;;;;;18.58;14.55;;;13.30;98.60;;;;;;4959217;28;20034;-91
2022/09/14 10:44:08;;;;;;;17.17;15.05;;;13.40;98.70;;;;;;4970715;28;20055;-89
2022/09/14 10:47:15;;;;;;;14.95;13.27;;;13.50;98.60;;;;;;4965083;28;20058;-90
2022/09/14 10:50:06;;;;;;;16.15;14.20;;;13.60;98.30;;;;;;4971750;28;20038;-89
2022/09/14 10:53:06;;;;;;;17.67;14.07;;;13.60;98.20;;;;;;4970954;28;20038;-91
2022/09/14 10:56:01;;;;;;;13.57;11.77;;;13.50;98.30;;;;;;4971390;28;20031;-89
2022/09/14 10:58:42;;;;;;;12.95;11.00;;;13.50;98.30;;;;;;4977881;28;20173;-89
2022/09/14 11:01:39;;;;;;;14.75;10.77;;;13.40;98.40;;;;;;4964733;28;20038;-90
2022/09/14 11:04:26;;;;;;;11.90;9.80;;;13.40;98.40;;;;;;4955009;29;20062;-90
2022/09/14 11:07:02;;;;;;;11.15;10.05;;;13.50;98.20;;;;;;4966077;29;20058;-88
2022/09/14 11:09:42;;;;;;;12.68;11.32;;;13.60;98.10;;;;;;4996415;28;20015;-89
2022/09/14 11:12:22;;;;;;;11.68;10.43;;;13.70;98.00;;;;;;4966013;28;20135;-91
2022/09/14 11:14:54;;;;;;;11.30;9.77;;;13.80;97.80;;;;;;4975411;28;20023;-89
2022/09/14 11:18:15;;;;;;;13.27;10.77;;;14.00;97.60;;;;;;4993242;28;20018;-89
2022/09/14 11:21:02;;;;;;;13.05;10.38;;;14.30;97.00;;;;;;4967639;28;20069;-90
2022/09/14 11:23:46;;;;;;;13.25;10.43;;;14.30;96.60;;;;;;4977208;28;20047;-90
2022/09/14 11:26:31;;;;;;;11.73;10.00;;;14.50;96.40;;;;;;4977942;28;20047;-89
2022/09/14 11:29:03;;;;;;;14.85;12.43;;;14.70;96.20;;;;;;4960409;28;20469;-90
2022/09/14 11:31:44;;;;;;;13.30;11.40;;;14.80;96.00;;;;;;4995956;28;20091;-90
2022/09/14 11:34:29;;;;;;;10.63;9.43;;;14.80;95.40;;;;;;4965946;28;20024;-90
2022/09/14 11:37:18;;;;;;;11.52;8.60;;;14.80;95.10;;;;;;4977803;28;20023;-88
2022/09/14 11:39:56;;;;;;;10.93;8.05;;;14.70;94.90;;;;;;4967364;28;20027;-91
2022/09/14 11:42:37;;;;;;;8.43;7.53;;;14.70;94.80;;;;;;4970709;28;20031;-89
2022/09/14 11:45:18;;;;;;;12.73;8.65;;;14.70;94.50;;;;;;4958428;28;20054;-90
2022/09/14 11:47:54;;;;;;;9.63;8.45;;;14.60;94.30;;;;;;4965999;28;20059;-89
2022/09/14 11:50:29;;;;;;;11.57;9.18;;;14.60;94.40;;;;;;4965590;28;20087;-88
2022/09/14 11:53:13;;;;;;;16.80;10.27;;;14.70;94.30;;;;;;4967047;29;20099;-90
2022/09/14 11:55:47;;;;;;;13.40;10.15;;;14.70;94.20;;;;;;4957931;28;20031;-88
2022/09/14 11:58:24;;;;;;;16.20;10.88;;;14.70;94.10;;;;;;4977128;28;20024;-90
2022/09/14 12:01:25;;;;;;;10.63;7.90;;;14.60;94.00;;;;;;4947133;28;20058;-90
2022/09/14 12:03:59;;;;;;;11.40;9.15;;;14.40;94.40;;;;;;4957354;29;20071;-88
2022/09/14 12:06:36;;;;;;;12.88;9.13;;;14.30;94.30;;;;;;4981447;28;20043;-93
2022/09/14 12:09:12;;;;;;;13.07;9.25;;;14.30;94.30;;;;;;4981389;28;20038;-89
2022/09/14 12:11:38;;;;;;;13.00;9.48;;;14.30;94.50;;;;;;4983918;28;20115;-91
2022/09/14 12:14:22;;;;;;;13.73;9.50;;;14.30;94.60;;;;;;4979255;29;20026;-91
2022/09/14 12:17:22;;;;;;;14.02;9.82;;;14.30;94.70;;;;;;4987004;28;20062;-91
2022/09/14 12:20:42;;;;;;;11.85;9.27;;;14.40;95.00;;;;;;4973859;29;20039;-91
2022/09/14 12:23:21;;;;;;;11.05;8.00;;;14.50;94.80;;;;;;4981342;28;20022;-92
2022/09/14 12:26:00;;;;;;;12.57;9.60;;;14.50;94.30;;;;;;4969397;28;20039;-92
2022/09/14 12:28:55;;;;;;;11.68;8.85;;;14.50;94.20;;;;;;4976068;28;20022;-90
2022/09/14 12:31:37;;;;;;;11.85;8.68;;;14.50;94.00;;;;;;4966826;28;20038;-90
2022/09/14 12:34:18;;;;;;;11.75;9.50;;;14.60;94.00;;;;;;4984559;28;20412;-90
2022/09/14 12:36:44;;;;;;;12.77;10.25;;;14.70;93.70;;;;;;4966369;28;20019;-91
2022/09/14 12:39:33;;;;;;;11.40;9.48;;;14.80;93.60;;;;;;4967913;28;20035;-90
2022/09/14 12:42:42;;;;;;;11.95;8.70;;;14.90;92.90;;;;;;4955831;29;20033;-91
2022/09/14 12:45:49;;;;;;;12.75;8.88;;;15.10;92.70;;;;;;4959883;28;20077;-91
2022/09/14 12:48:47;;;;;;;11.57;9.60;;;15.40;92.60;;;;;;4981626;28;20050;-93
2022/09/14 12:51:31;;;;;;;9.80;7.80;;;15.80;92.20;;;;;;4967300;28;20035;-91
2022/09/14 12:53:57;;;;;;;12.48;8.95;;;15.90;91.40;;;;;;4967838;28;20027;-90
2022/09/14 12:56:47;;;;;;;15.63;10.05;;;15.90;91.10;;;;;;4965155;29;20058;-89
2022/09/14 12:59:32;;;;;;;10.45;8.13;;;16.00;91.00;;;;;;4981014;28;20046;-91
2022/09/14 13:02:32;;;;;;;14.30;8.98;;;16.00;90.40;;;;;;4968664;28;20019;-90
2022/09/14 13:04:58;;;;;;;10.52;8.68;;;16.00;90.30;;;;;;4964034;29;20050;-93
2022/09/14 13:07:36;;;;;;;11.93;8.13;;;16.10;90.00;;;;;;4965262;28;20114;-90
2022/09/14 13:10:05;;;;;;;9.35;8.00;;;16.10;89.40;;;;;;4951147;28;20027;-89
2022/09/14 13:12:48;;;;;;;10.70;8.38;;;15.90;88.70;;;;;;4967782;28;20039;-91